sensor_id;sensor_type;location;lat;lon;timestamp;P1;durP1;ratioP1;P2;durP2;ratioP2
67819;SDS011;54618;52.018;5.576;2023-03-11T00:00:47;5.03;;;1.40;;
67819;SDS011;54618;52.018;5.576;2023-03-11T00:03:14;4.00;;;1.40;;
67819;SDS011;54618;52.018;5.576;2023-03-11T00:05:42;4.70;;;1.35;;
67819;SDS011;54618;52.018;5.576;2023-03-11T00:08:10;5.70;;;1.40;;
67819;SDS011;54618;52.018;5.576;2023-03-11T00:10:39;5.25;;;1.25;;
67819;SDS011;54618;52.018;5.576;2023-03-11T00:13:06;3.90;;;1.17;;
67819;SDS011;54618;52.018;5.576;2023-03-11T00:15:34;4.43;;;1.40;;
67819;SDS011;54618;52.018;5.576;2023-03-11T00:18:01;3.85;;;1.02;;
67819;SDS011;54618;52.018;5.576;2023-03-11T00:22:54;4.00;;;1.23;;
67819;SDS011;54618;52.018;5.576;2023-03-11T00:25:21;4.20;;;1.30;;
67819;SDS011;54618;52.018;5.576;2023-03-11T00:27:48;5.07;;;1.20;;
67819;SDS011;54618;52.018;5.576;2023-03-11T00:30:15;4.75;;;1.25;;
67819;SDS011;54618;52.018;5.576;2023-03-11T00:32:41;4.13;;;1.30;;
67819;SDS011;54618;52.018;5.576;2023-03-11T00:35:09;3.92;;;1.30;;
67819;SDS011;54618;52.018;5.576;2023-03-11T00:37:37;4.07;;;1.10;;
67819;SDS011;54618;52.018;5.576;2023-03-11T00:40:03;3.55;;;1.40;;
67819;SDS011;54618;52.018;5.576;2023-03-11T00:42:33;4.43;;;1.33;;
67819;SDS011;54618;52.018;5.576;2023-03-11T00:44:59;2.53;;;0.90;;
67819;SDS011;54618;52.018;5.576;2023-03-11T00:47:25;3.78;;;1.10;;
67819;SDS011;54618;52.018;5.576;2023-03-11T00:49:50;2.97;;;1.15;;
67819;SDS011;54618;52.018;5.576;2023-03-11T00:52:16;3.20;;;0.88;;
67819;SDS011;54618;52.018;5.576;2023-03-11T00:54:41;3.35;;;1.20;;
67819;SDS011;54618;52.018;5.576;2023-03-11T00:57:07;4.82;;;1.45;;
67819;SDS011;54618;52.018;5.576;2023-03-11T00:59:33;3.42;;;0.90;;
67819;SDS011;54618;52.018;5.576;2023-03-11T01:02:00;3.47;;;1.20;;
67819;SDS011;54618;52.018;5.576;2023-03-11T01:04:25;4.25;;;0.90;;
67819;SDS011;54618;52.018;5.576;2023-03-11T01:06:51;4.18;;;1.02;;
67819;SDS011;54618;52.018;5.576;2023-03-11T01:09:16;4.88;;;1.00;;
67819;SDS011;54618;52.018;5.576;2023-03-11T01:11:42;4.18;;;1.15;;
67819;SDS011;54618;52.018;5.576;2023-03-11T01:14:08;3.88;;;1.00;;
67819;SDS011;54618;52.018;5.576;2023-03-11T01:16:33;3.42;;;1.10;;
67819;SDS011;54618;52.018;5.576;2023-03-11T01:18:59;3.28;;;1.00;;
67819;SDS011;54618;52.018;5.576;2023-03-11T01:21:25;3.50;;;1.20;;
67819;SDS011;54618;52.018;5.576;2023-03-11T01:23:51;2.97;;;0.73;;
67819;SDS011;54618;52.018;5.576;2023-03-11T01:26:16;3.88;;;1.20;;
67819;SDS011;54618;52.018;5.576;2023-03-11T01:28:42;5.82;;;1.10;;
67819;SDS011;54618;52.018;5.576;2023-03-11T01:31:08;3.10;;;0.98;;
67819;SDS011;54618;52.018;5.576;2023-03-11T01:33:34;2.67;;;0.88;;
67819;SDS011;54618;52.018;5.576;2023-03-11T01:36:00;3.40;;;0.80;;
67819;SDS011;54618;52.018;5.576;2023-03-11T01:38:26;2.78;;;1.00;;
67819;SDS011;54618;52.018;5.576;2023-03-11T01:40:52;2.95;;;1.00;;
67819;SDS011;54618;52.018;5.576;2023-03-11T01:48:47;3.22;;;1.15;;
67819;SDS011;54618;52.018;5.576;2023-03-11T01:51:16;3.22;;;0.90;;
67819;SDS011;54618;52.018;5.576;2023-03-11T01:53:44;3.47;;;1.00;;
67819;SDS011;54618;52.018;5.576;2023-03-11T01:56:10;4.40;;;1.00;;
67819;SDS011;54618;52.018;5.576;2023-03-11T01:58:38;2.67;;;0.70;;
67819;SDS011;54618;52.018;5.576;2023-03-11T02:01:09;3.08;;;0.82;;
67819;SDS011;54618;52.018;5.576;2023-03-11T02:03:36;2.90;;;0.93;;
67819;SDS011;54618;52.018;5.576;2023-03-11T02:06:11;2.65;;;0.77;;
67819;SDS011;54618;52.018;5.576;2023-03-11T02:08:40;2.78;;;1.00;;
67819;SDS011;54618;52.018;5.576;2023-03-11T02:11:07;2.35;;;0.80;;
67819;SDS011;54618;52.018;5.576;2023-03-11T02:13:36;3.10;;;0.70;;
67819;SDS011;54618;52.018;5.576;2023-03-11T02:16:03;2.20;;;0.82;;
67819;SDS011;54618;52.018;5.576;2023-03-11T02:18:30;3.00;;;0.98;;
67819;SDS011;54618;52.018;5.576;2023-03-11T02:21:07;2.42;;;0.60;;
67819;SDS011;54618;52.018;5.576;2023-03-11T02:23:40;3.03;;;0.77;;
67819;SDS011;54618;52.018;5.576;2023-03-11T02:26:13;2.95;;;0.80;;
67819;SDS011;54618;52.018;5.576;2023-03-11T02:28:40;2.60;;;0.80;;
67819;SDS011;54618;52.018;5.576;2023-03-11T02:31:07;3.03;;;0.82;;
67819;SDS011;54618;52.018;5.576;2023-03-11T02:33:33;2.08;;;0.80;;
67819;SDS011;54618;52.018;5.576;2023-03-11T02:36:00;2.67;;;0.90;;
67819;SDS011;54618;52.018;5.576;2023-03-11T02:38:26;2.65;;;0.90;;
67819;SDS011;54618;52.018;5.576;2023-03-11T02:40:55;2.45;;;0.80;;
67819;SDS011;54618;52.018;5.576;2023-03-11T02:46:01;2.10;;;1.05;;
67819;SDS011;54618;52.018;5.576;2023-03-11T02:48:28;1.67;;;0.70;;
67819;SDS011;54618;52.018;5.576;2023-03-11T02:50:54;2.55;;;0.85;;
67819;SDS011;54618;52.018;5.576;2023-03-11T02:53:21;2.15;;;0.90;;
67819;SDS011;54618;52.018;5.576;2023-03-11T02:55:46;2.22;;;0.80;;
67819;SDS011;54618;52.018;5.576;2023-03-11T02:58:12;2.70;;;0.88;;
67819;SDS011;54618;52.018;5.576;2023-03-11T03:00:38;4.47;;;0.80;;
67819;SDS011;54618;52.018;5.576;2023-03-11T03:03:03;5.75;;;1.10;;
67819;SDS011;54618;52.018;5.576;2023-03-11T03:05:30;3.20;;;0.77;;
67819;SDS011;54618;52.018;5.576;2023-03-11T03:07:56;1.58;;;0.80;;
67819;SDS011;54618;52.018;5.576;2023-03-11T03:10:21;2.03;;;0.65;;
67819;SDS011;54618;52.018;5.576;2023-03-11T03:12:48;1.60;;;0.60;;
67819;SDS011;54618;52.018;5.576;2023-03-11T03:15:13;1.77;;;0.60;;
67819;SDS011;54618;52.018;5.576;2023-03-11T03:17:40;2.25;;;0.70;;
67819;SDS011;54618;52.018;5.576;2023-03-11T03:20:05;2.95;;;0.88;;
67819;SDS011;54618;52.018;5.576;2023-03-11T03:22:35;2.35;;;0.60;;
67819;SDS011;54618;52.018;5.576;2023-03-11T03:25:01;1.45;;;0.70;;
67819;SDS011;54618;52.018;5.576;2023-03-11T03:27:27;2.53;;;0.70;;
67819;SDS011;54618;52.018;5.576;2023-03-11T03:29:53;2.03;;;0.70;;
67819;SDS011;54618;52.018;5.576;2023-03-11T03:32:18;2.40;;;0.82;;
67819;SDS011;54618;52.018;5.576;2023-03-11T03:34:44;1.60;;;0.50;;
67819;SDS011;54618;52.018;5.576;2023-03-11T03:37:09;2.33;;;0.60;;
67819;SDS011;54618;52.018;5.576;2023-03-11T03:39:35;1.83;;;0.50;;
67819;SDS011;54618;52.018;5.576;2023-03-11T03:42:00;2.30;;;0.60;;
67819;SDS011;54618;52.018;5.576;2023-03-11T03:44:26;2.08;;;0.60;;
67819;SDS011;54618;52.018;5.576;2023-03-11T03:46:51;1.52;;;0.70;;
67819;SDS011;54618;52.018;5.576;2023-03-11T03:49:17;1.77;;;0.60;;
67819;SDS011;54618;52.018;5.576;2023-03-11T03:51:42;1.35;;;0.70;;
67819;SDS011;54618;52.018;5.576;2023-03-11T03:54:08;1.67;;;0.60;;
67819;SDS011;54618;52.018;5.576;2023-03-11T03:56:33;1.05;;;0.57;;
67819;SDS011;54618;52.018;5.576;2023-03-11T03:59:00;1.42;;;0.47;;
67819;SDS011;54618;52.018;5.576;2023-03-11T04:01:25;1.55;;;0.60;;
67819;SDS011;54618;52.018;5.576;2023-03-11T04:03:51;1.52;;;0.63;;
67819;SDS011;54618;52.018;5.576;2023-03-11T04:06:21;1.58;;;0.70;;
67819;SDS011;54618;52.018;5.576;2023-03-11T04:08:49;1.58;;;0.60;;
67819;SDS011;54618;52.018;5.576;2023-03-11T04:11:15;1.58;;;0.52;;
67819;SDS011;54618;52.018;5.576;2023-03-11T04:13:41;1.67;;;0.80;;
67819;SDS011;54618;52.018;5.576;2023-03-11T04:16:09;1.65;;;0.50;;
67819;SDS011;54618;52.018;5.576;2023-03-11T04:18:40;1.48;;;0.60;;
67819;SDS011;54618;52.018;5.576;2023-03-11T04:21:05;1.23;;;0.60;;
67819;SDS011;54618;52.018;5.576;2023-03-11T04:23:31;1.58;;;0.60;;
67819;SDS011;54618;52.018;5.576;2023-03-11T04:25:57;1.95;;;0.60;;
67819;SDS011;54618;52.018;5.576;2023-03-11T04:28:23;2.53;;;0.75;;
67819;SDS011;54618;52.018;5.576;2023-03-11T04:30:48;1.77;;;0.60;;
67819;SDS011;54618;52.018;5.576;2023-03-11T04:33:14;2.63;;;0.60;;
67819;SDS011;54618;52.018;5.576;2023-03-11T04:35:39;1.33;;;0.60;;
67819;SDS011;54618;52.018;5.576;2023-03-11T04:38:05;1.30;;;0.50;;
67819;SDS011;54618;52.018;5.576;2023-03-11T04:40:31;1.25;;;0.63;;
67819;SDS011;54618;52.018;5.576;2023-03-11T04:42:56;1.27;;;0.50;;
67819;SDS011;54618;52.018;5.576;2023-03-11T04:45:22;2.08;;;0.60;;
67819;SDS011;54618;52.018;5.576;2023-03-11T04:47:48;1.65;;;0.55;;
67819;SDS011;54618;52.018;5.576;2023-03-11T04:50:14;1.02;;;0.50;;
67819;SDS011;54618;52.018;5.576;2023-03-11T04:52:40;1.58;;;0.60;;
67819;SDS011;54618;52.018;5.576;2023-03-11T04:55:06;1.23;;;0.50;;
67819;SDS011;54618;52.018;5.576;2023-03-11T04:57:32;1.23;;;0.52;;
67819;SDS011;54618;52.018;5.576;2023-03-11T04:59:58;1.83;;;0.60;;
67819;SDS011;54618;52.018;5.576;2023-03-11T05:02:23;1.67;;;0.57;;
67819;SDS011;54618;52.018;5.576;2023-03-11T05:04:49;1.60;;;0.50;;
67819;SDS011;54618;52.018;5.576;2023-03-11T05:07:14;1.25;;;0.40;;
67819;SDS011;54618;52.018;5.576;2023-03-11T05:09:40;1.42;;;0.50;;
67819;SDS011;54618;52.018;5.576;2023-03-11T05:12:06;0.85;;;0.50;;
67819;SDS011;54618;52.018;5.576;2023-03-11T05:14:33;1.58;;;0.50;;
67819;SDS011;54618;52.018;5.576;2023-03-11T05:17:00;0.85;;;0.40;;
67819;SDS011;54618;52.018;5.576;2023-03-11T05:19:25;1.33;;;0.47;;
67819;SDS011;54618;52.018;5.576;2023-03-11T05:21:59;1.13;;;0.50;;
67819;SDS011;54618;52.018;5.576;2023-03-11T05:24:26;1.17;;;0.47;;
67819;SDS011;54618;52.018;5.576;2023-03-11T05:26:52;1.80;;;0.45;;
67819;SDS011;54618;52.018;5.576;2023-03-11T05:29:18;1.77;;;0.50;;
67819;SDS011;54618;52.018;5.576;2023-03-11T05:31:44;1.55;;;0.40;;
67819;SDS011;54618;52.018;5.576;2023-03-11T05:34:10;1.20;;;0.60;;
67819;SDS011;54618;52.018;5.576;2023-03-11T05:36:36;1.48;;;0.55;;
67819;SDS011;54618;52.018;5.576;2023-03-11T05:39:02;1.63;;;0.63;;
67819;SDS011;54618;52.018;5.576;2023-03-11T05:41:31;0.57;;;0.32;;
67819;SDS011;54618;52.018;5.576;2023-03-11T05:43:56;1.95;;;0.60;;
67819;SDS011;54618;52.018;5.576;2023-03-11T05:46:22;1.02;;;0.60;;
67819;SDS011;54618;52.018;5.576;2023-03-11T05:48:47;1.10;;;0.50;;
67819;SDS011;54618;52.018;5.576;2023-03-11T05:51:13;0.95;;;0.40;;
67819;SDS011;54618;52.018;5.576;2023-03-11T05:53:43;0.65;;;0.40;;
67819;SDS011;54618;52.018;5.576;2023-03-11T05:56:16;1.23;;;0.40;;
67819;SDS011;54618;52.018;5.576;2023-03-11T05:58:43;0.75;;;0.32;;
67819;SDS011;54618;52.018;5.576;2023-03-11T06:01:10;1.13;;;0.50;;
67819;SDS011;54618;52.018;5.576;2023-03-11T06:03:37;1.38;;;0.43;;
67819;SDS011;54618;52.018;5.576;2023-03-11T06:06:03;0.98;;;0.43;;
67819;SDS011;54618;52.018;5.576;2023-03-11T06:08:31;2.75;;;0.52;;
67819;SDS011;54618;52.018;5.576;2023-03-11T06:11:03;1.63;;;0.60;;
67819;SDS011;54618;52.018;5.576;2023-03-11T06:13:31;0.73;;;0.32;;
67819;SDS011;54618;52.018;5.576;2023-03-11T06:15:56;1.40;;;0.50;;
67819;SDS011;54618;52.018;5.576;2023-03-11T06:18:22;1.50;;;0.50;;
67819;SDS011;54618;52.018;5.576;2023-03-11T06:20:50;1.67;;;0.60;;
67819;SDS011;54618;52.018;5.576;2023-03-11T06:23:15;2.25;;;0.52;;
67819;SDS011;54618;52.018;5.576;2023-03-11T06:25:41;1.65;;;0.50;;
67819;SDS011;54618;52.018;5.576;2023-03-11T06:28:06;0.90;;;0.43;;
67819;SDS011;54618;52.018;5.576;2023-03-11T06:30:32;1.77;;;0.60;;
67819;SDS011;54618;52.018;5.576;2023-03-11T06:32:58;0.73;;;0.40;;
67819;SDS011;54618;52.018;5.576;2023-03-11T06:35:23;1.55;;;0.40;;
67819;SDS011;54618;52.018;5.576;2023-03-11T06:37:49;0.93;;;0.40;;
67819;SDS011;54618;52.018;5.576;2023-03-11T06:40:15;1.75;;;0.43;;
67819;SDS011;54618;52.018;5.576;2023-03-11T06:42:40;1.48;;;0.43;;
67819;SDS011;54618;52.018;5.576;2023-03-11T06:45:06;1.10;;;0.60;;
67819;SDS011;54618;52.018;5.576;2023-03-11T06:47:32;0.60;;;0.40;;
67819;SDS011;54618;52.018;5.576;2023-03-11T06:49:58;1.50;;;0.70;;
67819;SDS011;54618;52.018;5.576;2023-03-11T06:52:23;1.92;;;0.50;;
67819;SDS011;54618;52.018;5.576;2023-03-11T06:54:49;1.15;;;0.40;;
67819;SDS011;54618;52.018;5.576;2023-03-11T06:57:14;1.10;;;0.43;;
67819;SDS011;54618;52.018;5.576;2023-03-11T06:59:40;0.68;;;0.40;;
67819;SDS011;54618;52.018;5.576;2023-03-11T07:02:06;0.77;;;0.40;;
67819;SDS011;54618;52.018;5.576;2023-03-11T07:04:36;1.13;;;0.35;;
67819;SDS011;54618;52.018;5.576;2023-03-11T07:07:01;0.95;;;0.50;;
67819;SDS011;54618;52.018;5.576;2023-03-11T07:09:27;1.90;;;0.52;;
67819;SDS011;54618;52.018;5.576;2023-03-11T07:11:53;0.75;;;0.40;;
67819;SDS011;54618;52.018;5.576;2023-03-11T07:14:19;1.85;;;0.50;;
67819;SDS011;54618;52.018;5.576;2023-03-11T07:16:45;0.90;;;0.50;;
67819;SDS011;54618;52.018;5.576;2023-03-11T07:19:11;0.93;;;0.50;;
67819;SDS011;54618;52.018;5.576;2023-03-11T07:21:38;1.50;;;0.50;;
67819;SDS011;54618;52.018;5.576;2023-03-11T07:24:04;0.98;;;0.40;;
67819;SDS011;54618;52.018;5.576;2023-03-11T07:26:32;1.83;;;0.60;;
67819;SDS011;54618;52.018;5.576;2023-03-11T07:28:58;1.20;;;0.40;;
67819;SDS011;54618;52.018;5.576;2023-03-11T07:31:25;1.20;;;0.60;;
67819;SDS011;54618;52.018;5.576;2023-03-11T07:33:52;1.05;;;0.45;;
67819;SDS011;54618;52.018;5.576;2023-03-11T07:36:19;0.68;;;0.30;;
67819;SDS011;54618;52.018;5.576;2023-03-11T07:38:46;1.33;;;0.43;;
67819;SDS011;54618;52.018;5.576;2023-03-11T07:41:13;1.27;;;0.60;;
67819;SDS011;54618;52.018;5.576;2023-03-11T07:43:40;1.98;;;0.70;;
67819;SDS011;54618;52.018;5.576;2023-03-11T07:46:11;0.90;;;0.35;;
67819;SDS011;54618;52.018;5.576;2023-03-11T07:48:40;1.20;;;0.60;;
67819;SDS011;54618;52.018;5.576;2023-03-11T07:51:07;1.40;;;0.50;;
67819;SDS011;54618;52.018;5.576;2023-03-11T07:53:35;0.90;;;0.40;;
67819;SDS011;54618;52.018;5.576;2023-03-11T07:56:01;0.70;;;0.40;;
67819;SDS011;54618;52.018;5.576;2023-03-11T07:58:28;1.30;;;0.40;;
67819;SDS011;54618;52.018;5.576;2023-03-11T08:00:54;1.08;;;0.50;;
67819;SDS011;54618;52.018;5.576;2023-03-11T08:03:21;0.55;;;0.30;;
67819;SDS011;54618;52.018;5.576;2023-03-11T08:05:49;0.80;;;0.40;;
67819;SDS011;54618;52.018;5.576;2023-03-11T08:08:15;1.10;;;0.40;;
67819;SDS011;54618;52.018;5.576;2023-03-11T08:10:41;1.33;;;0.60;;
67819;SDS011;54618;52.018;5.576;2023-03-11T08:13:07;1.23;;;0.50;;
67819;SDS011;54618;52.018;5.576;2023-03-11T08:15:32;1.48;;;0.63;;
67819;SDS011;54618;52.018;5.576;2023-03-11T08:17:58;1.30;;;0.50;;
67819;SDS011;54618;52.018;5.576;2023-03-11T08:20:23;1.33;;;0.50;;
67819;SDS011;54618;52.018;5.576;2023-03-11T08:22:49;0.45;;;0.30;;
67819;SDS011;54618;52.018;5.576;2023-03-11T08:25:14;0.98;;;0.50;;
67819;SDS011;54618;52.018;5.576;2023-03-11T08:27:40;1.33;;;0.40;;
67819;SDS011;54618;52.018;5.576;2023-03-11T08:30:06;1.25;;;0.50;;
67819;SDS011;54618;52.018;5.576;2023-03-11T08:32:32;0.80;;;0.40;;
67819;SDS011;54618;52.018;5.576;2023-03-11T08:34:58;0.52;;;0.40;;
67819;SDS011;54618;52.018;5.576;2023-03-11T08:37:24;0.90;;;0.40;;
67819;SDS011;54618;52.018;5.576;2023-03-11T08:39:49;0.85;;;0.50;;
67819;SDS011;54618;52.018;5.576;2023-03-11T08:42:15;1.38;;;0.50;;
67819;SDS011;54618;52.018;5.576;2023-03-11T08:44:41;0.90;;;0.50;;
67819;SDS011;54618;52.018;5.576;2023-03-11T08:47:07;0.82;;;0.50;;
67819;SDS011;54618;52.018;5.576;2023-03-11T08:49:33;1.75;;;0.63;;
67819;SDS011;54618;52.018;5.576;2023-03-11T08:52:00;1.02;;;0.50;;
67819;SDS011;54618;52.018;5.576;2023-03-11T08:54:26;2.25;;;0.60;;
67819;SDS011;54618;52.018;5.576;2023-03-11T08:56:51;1.00;;;0.50;;
67819;SDS011;54618;52.018;5.576;2023-03-11T08:59:17;1.05;;;0.50;;
67819;SDS011;54618;52.018;5.576;2023-03-11T09:01:42;1.02;;;0.50;;
67819;SDS011;54618;52.018;5.576;2023-03-11T09:04:08;0.85;;;0.40;;
67819;SDS011;54618;52.018;5.576;2023-03-11T09:06:34;1.92;;;0.40;;
67819;SDS011;54618;52.018;5.576;2023-03-11T09:09:00;1.40;;;0.40;;
67819;SDS011;54618;52.018;5.576;2023-03-11T09:11:25;2.05;;;0.50;;
67819;SDS011;54618;52.018;5.576;2023-03-11T09:13:51;0.93;;;0.47;;
67819;SDS011;54618;52.018;5.576;2023-03-11T09:16:18;1.25;;;0.60;;
67819;SDS011;54618;52.018;5.576;2023-03-11T09:18:47;1.85;;;0.50;;
67819;SDS011;54618;52.018;5.576;2023-03-11T09:21:13;0.95;;;0.45;;
67819;SDS011;54618;52.018;5.576;2023-03-11T09:23:39;0.85;;;0.40;;
67819;SDS011;54618;52.018;5.576;2023-03-11T09:26:05;1.83;;;0.57;;
67819;SDS011;54618;52.018;5.576;2023-03-11T09:28:31;0.63;;;0.30;;
67819;SDS011;54618;52.018;5.576;2023-03-11T09:30:56;1.30;;;0.60;;
67819;SDS011;54618;52.018;5.576;2023-03-11T09:33:22;0.80;;;0.40;;
67819;SDS011;54618;52.018;5.576;2023-03-11T09:35:48;2.15;;;0.50;;
67819;SDS011;54618;52.018;5.576;2023-03-11T09:38:13;1.15;;;0.45;;
67819;SDS011;54618;52.018;5.576;2023-03-11T09:45:58;3.13;;;0.40;;
67819;SDS011;54618;52.018;5.576;2023-03-11T09:49:21;1.73;;;0.40;;
67819;SDS011;54618;52.018;5.576;2023-03-11T09:52:00;1.02;;;0.40;;
67819;SDS011;54618;52.018;5.576;2023-03-11T09:54:41;1.30;;;0.50;;
67819;SDS011;54618;52.018;5.576;2023-03-11T09:57:16;1.13;;;0.60;;
67819;SDS011;54618;52.018;5.576;2023-03-11T09:59:46;2.13;;;0.45;;
67819;SDS011;54618;52.018;5.576;2023-03-11T10:02:19;1.20;;;0.40;;
67819;SDS011;54618;52.018;5.576;2023-03-11T10:07:38;0.73;;;0.40;;
67819;SDS011;54618;52.018;5.576;2023-03-11T10:10:06;2.05;;;0.52;;
67819;SDS011;54618;52.018;5.576;2023-03-11T10:20:59;1.42;;;0.43;;
67819;SDS011;54618;52.018;5.576;2023-03-11T10:26:36;2.10;;;0.50;;
67819;SDS011;54618;52.018;5.576;2023-03-11T10:31:49;2.05;;;0.40;;
67819;SDS011;54618;52.018;5.576;2023-03-11T10:39:27;0.82;;;0.40;;
67819;SDS011;54618;52.018;5.576;2023-03-11T10:41:56;2.42;;;0.57;;
67819;SDS011;54618;52.018;5.576;2023-03-11T10:44:37;1.40;;;0.45;;
67819;SDS011;54618;52.018;5.576;2023-03-11T10:47:04;1.00;;;0.30;;
67819;SDS011;54618;52.018;5.576;2023-03-11T10:49:31;2.22;;;0.43;;
67819;SDS011;54618;52.018;5.576;2023-03-11T10:51:57;0.60;;;0.30;;
67819;SDS011;54618;52.018;5.576;2023-03-11T10:54:30;2.28;;;0.50;;
67819;SDS011;54618;52.018;5.576;2023-03-11T10:57:04;0.63;;;0.40;;
67819;SDS011;54618;52.018;5.576;2023-03-11T10:59:46;1.30;;;0.50;;
67819;SDS011;54618;52.018;5.576;2023-03-11T11:02:22;2.55;;;0.50;;
67819;SDS011;54618;52.018;5.576;2023-03-11T11:04:50;0.80;;;0.40;;
67819;SDS011;54618;52.018;5.576;2023-03-11T11:07:42;1.98;;;0.50;;
67819;SDS011;54618;52.018;5.576;2023-03-11T11:12:50;0.68;;;0.30;;
67819;SDS011;54618;52.018;5.576;2023-03-11T11:18:03;3.17;;;0.60;;
67819;SDS011;54618;52.018;5.576;2023-03-11T11:20:29;1.73;;;0.40;;
67819;SDS011;54618;52.018;5.576;2023-03-11T11:23:00;2.72;;;0.40;;
67819;SDS011;54618;52.018;5.576;2023-03-11T11:28:00;1.83;;;0.55;;
67819;SDS011;54618;52.018;5.576;2023-03-11T11:30:55;2.35;;;0.57;;
67819;SDS011;54618;52.018;5.576;2023-03-11T11:33:28;3.20;;;0.50;;
67819;SDS011;54618;52.018;5.576;2023-03-11T11:35:59;2.40;;;0.60;;
67819;SDS011;54618;52.018;5.576;2023-03-11T11:38:28;1.10;;;0.45;;
67819;SDS011;54618;52.018;5.576;2023-03-11T11:40:56;2.15;;;0.60;;
67819;SDS011;54618;52.018;5.576;2023-03-11T11:46:12;3.63;;;0.40;;
67819;SDS011;54618;52.018;5.576;2023-03-11T11:54:14;1.80;;;0.60;;
67819;SDS011;54618;52.018;5.576;2023-03-11T11:56:44;1.23;;;0.43;;
67819;SDS011;54618;52.018;5.576;2023-03-11T11:59:12;1.10;;;0.40;;
67819;SDS011;54618;52.018;5.576;2023-03-11T12:04:24;1.58;;;0.70;;
67819;SDS011;54618;52.018;5.576;2023-03-11T12:12:20;2.47;;;0.60;;
67819;SDS011;54618;52.018;5.576;2023-03-11T12:15:15;2.83;;;0.60;;
67819;SDS011;54618;52.018;5.576;2023-03-11T12:17:51;1.13;;;0.60;;
67819;SDS011;54618;52.018;5.576;2023-03-11T12:25:44;1.55;;;0.50;;
67819;SDS011;54618;52.018;5.576;2023-03-11T12:28:44;4.07;;;0.60;;
67819;SDS011;54618;52.018;5.576;2023-03-11T12:31:22;3.23;;;0.50;;
67819;SDS011;54618;52.018;5.576;2023-03-11T12:33:54;1.92;;;0.40;;
67819;SDS011;54618;52.018;5.576;2023-03-11T12:39:21;3.55;;;0.52;;
67819;SDS011;54618;52.018;5.576;2023-03-11T12:41:47;3.22;;;0.60;;
67819;SDS011;54618;52.018;5.576;2023-03-11T12:50:35;0.70;;;0.28;;
67819;SDS011;54618;52.018;5.576;2023-03-11T12:54:40;1.63;;;0.52;;
67819;SDS011;54618;52.018;5.576;2023-03-11T13:02:52;2.85;;;0.70;;
67819;SDS011;54618;52.018;5.576;2023-03-11T13:08:23;1.15;;;0.40;;
67819;SDS011;54618;52.018;5.576;2023-03-11T13:10:52;1.15;;;0.35;;
67819;SDS011;54618;52.018;5.576;2023-03-11T13:13:28;4.13;;;0.50;;
67819;SDS011;54618;52.018;5.576;2023-03-11T13:15:54;2.50;;;0.50;;
67819;SDS011;54618;52.018;5.576;2023-03-11T13:18:27;0.77;;;0.30;;
67819;SDS011;54618;52.018;5.576;2023-03-11T13:23:27;2.63;;;0.60;;
67819;SDS011;54618;52.018;5.576;2023-03-11T13:26:01;1.73;;;0.40;;
67819;SDS011;54618;52.018;5.576;2023-03-11T13:28:50;2.08;;;0.40;;
67819;SDS011;54618;52.018;5.576;2023-03-11T13:31:41;1.10;;;0.40;;
67819;SDS011;54618;52.018;5.576;2023-03-11T13:42:39;0.70;;;0.30;;
67819;SDS011;54618;52.018;5.576;2023-03-11T13:47:57;1.35;;;0.47;;
67819;SDS011;54618;52.018;5.576;2023-03-11T13:50:31;1.70;;;0.30;;
67819;SDS011;54618;52.018;5.576;2023-03-11T13:53:01;2.33;;;0.50;;
67819;SDS011;54618;52.018;5.576;2023-03-11T13:55:33;1.73;;;0.40;;
67819;SDS011;54618;52.018;5.576;2023-03-11T13:58:15;1.73;;;0.40;;
67819;SDS011;54618;52.018;5.576;2023-03-11T14:00:51;1.15;;;0.50;;
67819;SDS011;54618;52.018;5.576;2023-03-11T14:03:22;2.78;;;0.40;;
67819;SDS011;54618;52.018;5.576;2023-03-11T14:06:03;2.30;;;0.50;;
67819;SDS011;54618;52.018;5.576;2023-03-11T14:08:35;0.82;;;0.47;;
67819;SDS011;54618;52.018;5.576;2023-03-11T14:13:41;0.85;;;0.38;;
67819;SDS011;54618;52.018;5.576;2023-03-11T14:16:09;1.60;;;0.40;;
67819;SDS011;54618;52.018;5.576;2023-03-11T14:18:42;1.33;;;0.40;;
67819;SDS011;54618;52.018;5.576;2023-03-11T14:21:12;0.65;;;0.30;;
67819;SDS011;54618;52.018;5.576;2023-03-11T14:23:47;1.15;;;0.40;;
67819;SDS011;54618;52.018;5.576;2023-03-11T14:26:18;2.05;;;0.30;;
67819;SDS011;54618;52.018;5.576;2023-03-11T14:29:00;0.30;;;0.20;;
67819;SDS011;54618;52.018;5.576;2023-03-11T14:31:39;1.10;;;0.50;;
67819;SDS011;54618;52.018;5.576;2023-03-11T14:34:20;1.08;;;0.40;;
67819;SDS011;54618;52.018;5.576;2023-03-11T14:36:50;2.83;;;0.50;;
67819;SDS011;54618;52.018;5.576;2023-03-11T14:39:23;1.47;;;0.50;;
67819;SDS011;54618;52.018;5.576;2023-03-11T14:42:05;0.98;;;0.28;;
67819;SDS011;54618;52.018;5.576;2023-03-11T14:44:43;0.90;;;0.30;;
67819;SDS011;54618;52.018;5.576;2023-03-11T14:47:50;0.30;;;0.30;;
67819;SDS011;54618;52.018;5.576;2023-03-11T14:50:32;0.93;;;0.50;;
67819;SDS011;54618;52.018;5.576;2023-03-11T14:55:50;1.33;;;0.30;;
67819;SDS011;54618;52.018;5.576;2023-03-11T14:58:32;1.52;;;0.40;;
67819;SDS011;54618;52.018;5.576;2023-03-11T15:06:37;1.00;;;0.35;;
67819;SDS011;54618;52.018;5.576;2023-03-11T15:09:10;0.77;;;0.30;;
67819;SDS011;54618;52.018;5.576;2023-03-11T15:14:22;0.70;;;0.30;;
67819;SDS011;54618;52.018;5.576;2023-03-11T15:17:08;1.10;;;0.40;;
67819;SDS011;54618;52.018;5.576;2023-03-11T15:19:39;1.52;;;0.40;;
67819;SDS011;54618;52.018;5.576;2023-03-11T15:22:16;0.30;;;0.28;;
67819;SDS011;54618;52.018;5.576;2023-03-11T15:24:58;0.70;;;0.32;;
67819;SDS011;54618;52.018;5.576;2023-03-11T15:27:32;1.05;;;0.40;;
67819;SDS011;54618;52.018;5.576;2023-03-11T15:30:01;0.88;;;0.35;;
67819;SDS011;54618;52.018;5.576;2023-03-11T15:37:31;1.00;;;0.40;;
67819;SDS011;54618;52.018;5.576;2023-03-11T15:40:08;0.85;;;0.30;;
67819;SDS011;54618;52.018;5.576;2023-03-11T15:45:39;1.02;;;0.40;;
67819;SDS011;54618;52.018;5.576;2023-03-11T15:48:07;0.52;;;0.30;;
67819;SDS011;54618;52.018;5.576;2023-03-11T15:50:34;2.28;;;0.40;;
67819;SDS011;54618;52.018;5.576;2023-03-11T15:53:01;1.75;;;0.50;;
67819;SDS011;54618;52.018;5.576;2023-03-11T15:55:28;2.65;;;0.60;;
67819;SDS011;54618;52.018;5.576;2023-03-11T15:57:58;0.70;;;0.30;;
67819;SDS011;54618;52.018;5.576;2023-03-11T16:00:27;1.35;;;0.40;;
67819;SDS011;54618;52.018;5.576;2023-03-11T16:02:52;1.48;;;0.47;;
67819;SDS011;54618;52.018;5.576;2023-03-11T16:05:19;2.05;;;0.40;;
67819;SDS011;54618;52.018;5.576;2023-03-11T16:07:47;3.40;;;0.60;;
67819;SDS011;54618;52.018;5.576;2023-03-11T16:10:13;3.53;;;0.50;;
67819;SDS011;54618;52.018;5.576;2023-03-11T16:12:41;2.63;;;0.50;;
67819;SDS011;54618;52.018;5.576;2023-03-11T16:15:23;2.90;;;0.45;;
67819;SDS011;54618;52.018;5.576;2023-03-11T16:17:57;1.50;;;0.30;;
67819;SDS011;54618;52.018;5.576;2023-03-11T16:20:25;1.50;;;0.30;;
67819;SDS011;54618;52.018;5.576;2023-03-11T16:22:55;2.67;;;0.50;;
67819;SDS011;54618;52.018;5.576;2023-03-11T16:25:32;2.25;;;0.50;;
67819;SDS011;54618;52.018;5.576;2023-03-11T16:28:01;3.75;;;0.68;;
67819;SDS011;54618;52.018;5.576;2023-03-11T16:30:27;1.40;;;0.43;;
67819;SDS011;54618;52.018;5.576;2023-03-11T16:32:54;1.25;;;0.60;;
67819;SDS011;54618;52.018;5.576;2023-03-11T16:35:20;3.35;;;0.50;;
67819;SDS011;54618;52.018;5.576;2023-03-11T16:37:46;4.32;;;0.82;;
67819;SDS011;54618;52.018;5.576;2023-03-11T16:40:13;9.60;;;3.47;;
67819;SDS011;54618;52.018;5.576;2023-03-11T16:42:44;13.65;;;4.10;;
67819;SDS011;54618;52.018;5.576;2023-03-11T16:45:14;14.63;;;3.58;;
67819;SDS011;54618;52.018;5.576;2023-03-11T16:47:41;11.65;;;3.25;;
67819;SDS011;54618;52.018;5.576;2023-03-11T16:50:07;9.27;;;2.78;;
67819;SDS011;54618;52.018;5.576;2023-03-11T16:52:34;9.93;;;3.00;;
67819;SDS011;54618;52.018;5.576;2023-03-11T16:54:59;8.25;;;2.53;;
67819;SDS011;54618;52.018;5.576;2023-03-11T16:57:25;8.32;;;2.53;;
67819;SDS011;54618;52.018;5.576;2023-03-11T16:59:51;7.00;;;2.17;;